Time;durP1;ratioP1;P1;durP2;ratioP2;P2;SDS_P1;SDS_P2;PMS_P1;PMS_P2;Temp;Humidity;BMP_temperature;BMP_pressure;BME280_temperature;BME280_humidity;BME280_pressure;Samples;Min_cycle;Max_cycle;Signal;HPM_P1;HPM_P2
2022/12/19 02:05:57;;;;;;;62.78;30.02;;;;;;;-3.87;75.48;96417.73;1828135;77;26754;-48
2022/12/19 02:08:24;;;;;;;62.45;31.55;;;;;;;-3.92;75.38;96419.22;1794544;78;21049;-49
2022/12/19 02:10:51;;;;;;;65.62;30.45;;;;;;;-3.93;75.30;96421.66;1783571;79;21814;-48
2022/12/19 02:13:20;;;;;;;65.05;33.18;;;;;;;-3.95;75.45;96427.37;1785154;79;20954;-48
2022/12/19 02:15:52;;;;;;;69.82;34.55;;;;;;;-3.94;75.63;96421.42;1800103;78;21220;-48
2022/12/19 02:18:50;;;;;;;59.27;30.92;;;;;;;-3.87;76.08;96423.12;1731477;82;21037;-48
2022/12/19 02:21:41;;;;;;;58.20;27.65;;;;;;;-3.76;76.33;96414.96;1672703;85;21111;-48
2022/12/19 02:24:44;;;;;;;54.58;27.75;;;;;;;-3.61;76.07;96407.77;1644086;85;21166;-48
2022/12/19 02:27:32;;;;;;;46.37;25.80;;;;;;;-3.49;76.20;96421.62;1638326;86;21071;-53
2022/12/19 02:30:13;;;;;;;46.40;24.12;;;;;;;-3.44;75.12;96408.00;1640270;86;21079;-48
2022/12/19 02:32:47;;;;;;;39.67;20.35;;;;;;;-3.50;74.96;96413.85;1631696;86;21042;-48
2022/12/19 02:35:28;;;;;;;39.65;20.25;;;;;;;-3.56;74.82;96409.75;1633130;86;21513;-48
2022/12/19 02:38:19;;;;;;;34.58;20.40;;;;;;;-3.58;74.71;96412.52;1640282;86;21269;-48
2022/12/19 02:41:03;;;;;;;39.75;20.75;;;;;;;-3.61;74.57;96409.11;1644180;85;21555;-48
2022/12/19 02:43:34;;;;;;;42.80;23.30;;;;;;;-3.65;74.61;96406.83;1640833;85;21041;-48
2022/12/19 02:46:02;;;;;;;42.38;21.23;;;;;;;-3.64;74.81;96411.91;1644590;85;21202;-48
2022/12/19 02:48:29;;;;;;;42.30;23.27;;;;;;;-3.59;74.97;96413.08;1634748;86;21128;-48
2022/12/19 02:50:57;;;;;;;40.70;22.70;;;;;;;-3.50;74.93;96410.63;1625724;86;21250;-48
2022/12/19 02:53:24;;;;;;;47.38;26.02;;;;;;;-3.48;74.45;96416.47;1637928;84;21055;-47
2022/12/19 02:56:29;;;;;;;47.17;23.83;;;;;;;-3.50;74.08;96421.38;1664641;84;21069;-49
2022/12/19 02:59:12;;;;;;;;;;;;;;;-3.54;73.84;96422.89;1679797;83;21099;-48
2022/12/19 03:01:50;;;;;;;56.47;29.17;;;;;;;-3.52;74.30;96435.70;1593643;88;20159;-48
2022/12/19 03:04:54;;;;;;;89.13;38.48;;;;;;;-3.51;73.84;96427.06;1558605;90;21177;-48
2022/12/19 03:07:50;;;;;;;59.35;28.30;;;;;;;-3.51;73.61;96427.88;1552769;90;21213;-48
2022/12/19 03:10:40;;;;;;;67.15;32.28;;;;;;;-3.55;73.57;96426.13;1573667;90;21071;-49
2022/12/19 03:13:27;;;;;;;59.03;29.82;;;;;;;-3.52;73.57;96433.02;1561073;90;21068;-48
2022/12/19 03:15:54;;;;;;;58.85;30.50;;;;;;;-3.48;73.58;96437.98;1624484;87;21060;-47
2022/12/19 03:18:20;;;;;;;67.05;31.45;;;;;;;-3.40;73.65;96437.19;1608376;88;21271;-48
2022/12/19 03:20:55;;;;;;;69.37;32.28;;;;;;;-3.39;73.01;96442.80;1592546;88;21089;-48
2022/12/19 03:23:22;;;;;;;54.27;26.97;;;;;;;-3.47;72.99;96435.54;1568064;89;21055;-49
2022/12/19 03:26:04;;;;;;;44.73;23.40;;;;;;;-3.53;72.73;96436.58;1605418;88;21078;-48
2022/12/19 03:28:53;;;;;;;42.55;22.58;;;;;;;-3.60;72.49;96445.12;1512380;93;21154;-49
2022/12/19 03:31:23;;;;;;;45.95;24.63;;;;;;;-3.65;72.86;96453.89;1512723;93;21229;-48
2022/12/19 03:33:53;;;;;;;49.85;24.47;;;;;;;-3.56;73.39;96444.72;1508112;94;21103;-48
2022/12/19 03:36:23;;;;;;;71.75;38.05;;;;;;;-3.48;72.76;96442.02;1511411;93;21171;-49
2022/12/19 03:38:50;;;;;;;56.18;30.50;;;;;;;-3.51;72.33;96456.11;1529292;91;21268;-49
2022/12/19 03:43:07;;;;;;;54.33;29.25;;;;;;;-3.51;72.74;96451.27;1565514;90;21093;-48
2022/12/19 03:43:45;;;;;;;54.35;27.52;;;;;;;-3.41;72.76;96458.47;1563057;90;21732;-48
2022/12/19 03:46:22;;;;;;;97.20;51.42;;;;;;;-3.41;71.99;96451.74;1555348;91;21349;-48
2022/12/19 03:48:50;;;;;;;86.80;46.23;;;;;;;-3.49;71.63;96461.96;1493603;94;21184;-47
2022/12/19 03:51:43;;;;;;;81.75;38.90;;;;;;;-3.61;71.40;96463.70;1535585;91;21229;-48
2022/12/19 03:54:24;;;;;;;50.58;25.62;;;;;;;-3.64;72.07;96465.69;1521782;93;21133;-48
2022/12/19 03:57:05;;;;;;;56.42;27.70;;;;;;;-3.66;71.62;96468.44;1520351;93;21287;-48
2022/12/19 03:59:51;;;;;;;59.00;27.70;;;;;;;-3.92;71.70;96465.71;1546844;90;21622;-48
2022/12/19 06:03:50;;;;;;;146.28;61.90;;;;;;;-6.61;77.21;96556.66;1824305;77;26128;-47
2022/12/19 06:06:20;;;;;;;85.25;43.23;;;;;;;-6.64;77.46;96556.72;1784189;79;21015;-47
2022/12/19 06:08:47;;;;;;;96.10;47.80;;;;;;;-6.58;77.74;96561.42;1794078;78;21075;-46
2022/12/19 06:11:14;;;;;;;156.52;68.37;;;;;;;-6.52;77.61;96569.63;1795279;78;21014;-47
2022/12/19 06:13:41;;;;;;;209.57;98.12;;;;;;;-6.46;77.60;96568.44;1782683;79;21466;-47
2022/12/19 06:16:14;;;;;;;209.98;92.92;;;;;;;-6.39;77.49;96567.49;1780223;79;21014;-47
2022/12/19 06:18:41;;;;;;;195.55;94.15;;;;;;;-6.26;77.74;96573.41;1746278;80;21084;-47
2022/12/19 06:21:14;;;;;;;163.90;82.17;;;;;;;-6.13;77.73;96566.72;1769233;79;21747;-47
2022/12/19 06:23:41;;;;;;;135.75;64.92;;;;;;;-5.95;77.64;96570.40;1696420;83;20989;-46
2022/12/19 06:26:11;;;;;;;118.93;58.87;;;;;;;-5.82;77.26;96569.05;1708127;82;21076;-45
2022/12/19 06:28:37;;;;;;;147.98;69.62;;;;;;;-5.78;76.81;96564.63;1701310;82;21057;-45
2022/12/19 06:31:05;;;;;;;200.43;84.55;;;;;;;-5.72;76.88;96568.81;1710221;83;21544;-48
2022/12/19 06:33:32;;;;;;;296.05;124.97;;;;;;;-5.63;76.82;96575.05;1702117;82;21324;-46
2022/12/19 06:36:02;;;;;;;358.77;147.35;;;;;;;-5.56;76.51;96574.64;1656216;83;21107;-45
2022/12/19 06:38:29;;;;;;;294.67;127.67;;;;;;;-5.62;76.33;96577.97;1617888;87;21535;-49
2022/12/19 06:43:41;;;;;;;202.45;96.72;;;;;;;-5.52;76.36;96580.45;1625691;86;21038;-47
2022/12/19 06:46:08;;;;;;;299.60;134.85;;;;;;;-5.50;76.24;96577.45;1638924;86;21933;-45
2022/12/19 06:48:36;;;;;;;221.75;106.20;;;;;;;-5.51;76.10;96583.91;1665655;84;22221;-46
2022/12/19 06:51:03;;;;;;;239.32;105.67;;;;;;;-5.51;76.10;96583.91;1681755;84;21124;-48
2022/12/19 06:53:29;;;;;;;224.18;105.35;;;;;;;-5.45;76.03;96589.42;1638787;86;21602;-47
2022/12/19 06:55:57;;;;;;;201.07;88.30;;;;;;;-5.31;76.34;96593.66;1662141;86;21183;-47
2022/12/19 06:58:24;;;;;;;174.10;77.45;;;;;;;-5.13;76.12;96594.05;1626874;86;21336;-51
2022/12/19 07:00:51;;;;;;;177.00;79.10;;;;;;;-5.11;75.16;96592.66;1594616;88;21125;-52
2022/12/19 07:03:23;;;;;;;193.35;88.60;;;;;;;-5.17;74.95;96601.13;1612003;88;21127;-48
2022/12/19 07:05:50;;;;;;;176.95;84.58;;;;;;;-5.18;75.20;96596.86;1620507;86;21168;-49
2022/12/19 07:08:17;;;;;;;177.10;83.78;;;;;;;-5.03;75.58;96593.27;1632023;85;21065;-47
2022/12/19 07:10:45;;;;;;;184.87;89.62;;;;;;;-4.80;75.45;96600.79;1671947;84;21807;-49
2022/12/19 07:13:12;;;;;;;165.07;76.72;;;;;;;-4.63;74.84;96592.29;1608408;85;21143;-49
2022/12/19 07:15:39;;;;;;;163.18;80.32;;;;;;;-4.55;74.15;96590.77;1642760;85;21649;-46
2022/12/19 07:18:07;;;;;;;150.32;73.55;;;;;;;-4.54;74.39;96600.41;1664559;85;21268;-52
2022/12/19 07:20:36;;;;;;;123.47;65.05;;;;;;;-4.40;74.20;96598.44;1687996;80;21123;-48
2022/12/19 07:23:02;;;;;;;121.92;62.62;;;;;;;-4.30;73.90;96596.82;1714378;81;21814;-48
2022/12/19 07:25:30;;;;;;;130.52;67.03;;;;;;;-4.21;73.53;96592.30;1708329;82;21039;-49
2022/12/19 07:27:57;;;;;;;129.18;64.50;;;;;;;-4.22;73.09;96596.09;1717217;81;21068;-47
2022/12/19 07:30:24;;;;;;;169.22;82.92;;;;;;;-4.16;72.97;96592.16;1712848;82;21583;-51
2022/12/19 07:32:51;;;;;;;152.97;74.77;;;;;;;-4.14;72.97;96591.30;1672011;82;21136;-47
2022/12/19 07:35:21;;;;;;;113.57;56.45;;;;;;;-4.02;73.02;96592.30;1717334;82;21165;-52
2022/12/19 07:37:49;;;;;;;107.85;58.38;;;;;;;-3.85;72.48;96590.25;1779334;79;21065;-48
2022/12/19 07:40:16;;;;;;;107.90;59.33;;;;;;;-3.85;71.97;96581.61;1793961;78;21049;-51
2022/12/19 07:42:46;;;;;;;107.87;58.63;;;;;;;-3.89;71.68;96583.92;1788046;78;21061;-50
2022/12/19 07:45:13;;;;;;;138.55;72.75;;;;;;;-3.93;71.76;96593.14;1785654;78;20996;-48
2022/12/19 07:47:39;;;;;;;99.70;54.25;;;;;;;-3.93;71.91;96588.30;1765015;79;21160;-48
2022/12/19 07:50:07;;;;;;;111.00;57.00;;;;;;;-3.91;71.68;96588.24;1757643;78;21140;-48
2022/12/19 07:52:34;;;;;;;98.80;50.40;;;;;;;-3.98;71.56;96588.45;1763019;78;21009;-56
2022/12/19 07:55:01;;;;;;;78.70;40.60;;;;;;;-3.99;71.59;96597.08;1759992;79;21058;-54
2022/12/19 07:57:28;;;;;;;67.78;37.30;;;;;;;-3.97;71.87;96590.03;1764932;78;21042;-57
2022/12/19 07:59:55;;;;;;;103.47;47.08;;;;;;;-3.90;71.66;96586.36;1767524;79;21255;-53
2022/12/19 08:02:22;;;;;;;131.22;67.00;;;;;;;-3.72;71.89;96582.62;1759852;80;21060;-52
2022/12/19 08:04:49;;;;;;;47.20;25.68;;;;;;;-3.51;71.71;96584.41;1721116;80;21135;-52
2022/12/19 08:07:18;;;;;;;71.90;42.03;;;;;;;-3.34;70.58;96583.91;1723617;80;21099;-54
2022/12/19 08:09:45;;;;;;;46.92;26.87;;;;;;;-3.30;70.09;96576.78;1724469;82;21237;-47
2022/12/19 08:12:11;;;;;;;67.05;33.98;;;;;;;-3.14;69.41;96585.98;1721331;81;21280;-49
2022/12/19 08:14:38;;;;;;;76.28;39.23;;;;;;;-3.09;69.02;96584.47;1732245;80;21195;-48
2022/12/19 08:17:05;;;;;;;63.50;34.33;;;;;;;-3.03;68.70;96590.50;1748812;80;21051;-50
2022/12/19 08:19:33;;;;;;;44.13;25.85;;;;;;;-2.98;68.88;96580.38;1779711;78;21041;-49
2022/12/19 08:22:00;;;;;;;58.68;29.45;;;;;;;-2.88;68.29;96579.27;1768832;79;21060;-49
2022/12/19 08:24:27;;;;;;;43.50;24.55;;;;;;;-2.86;67.97;96588.59;1796581;78;22071;-48
2022/12/19 08:26:54;;;;;;;52.15;27.73;;;;;;;-2.88;68.11;96584.65;1766503;79;21167;-55
2022/12/19 08:29:21;;;;;;;32.80;18.27;;;;;;;-2.82;68.11;96583.38;1765896;78;21081;-57
2022/12/19 08:31:48;;;;;;;43.30;21.62;;;;;;;-2.79;67.80;96580.84;1777814;78;21245;-49
2022/12/19 08:34:14;;;;;;;36.77;20.90;;;;;;;-2.74;67.74;96577.17;1784390;78;21037;-51
2022/12/19 08:36:42;;;;;;;38.60;20.20;;;;;;;-2.72;67.86;96577.10;1778558;78;21158;-52
2022/12/19 08:39:10;;;;;;;42.35;24.43;;;;;;;-2.62;67.61;96578.14;1753793;80;21042;-47
2022/12/19 08:41:37;;;;;;;50.05;27.25;;;;;;;-2.46;67.39;96576.53;1783682;78;21137;-49
2022/12/19 08:44:04;;;;;;;46.83;27.05;;;;;;;-2.26;66.77;96571.00;1780116;79;21102;-54
2022/12/19 08:46:31;;;;;;;45.88;25.50;;;;;;;-2.16;66.33;96571.45;1783787;78;21049;-52
2022/12/19 08:48:57;;;;;;;54.70;28.62;;;;;;;-1.83;66.12;96569.74;1763898;79;21159;-48
2022/12/19 08:51:25;;;;;;;42.15;24.55;;;;;;;-1.42;65.68;96565.80;1757052;79;21099;-57
2022/12/19 08:53:52;;;;;;;41.18;23.90;;;;;;;-1.03;64.68;96564.02;1779605;79;21041;-48
2022/12/19 08:56:20;;;;;;;47.53;24.87;;;;;;;-0.95;63.51;96557.78;1777812;79;21037;-57
2022/12/19 08:58:50;;;;;;;44.67;24.90;;;;;;;-0.92;63.00;96554.41;1774221;80;21655;-55
2022/12/19 09:01:19;;;;;;;48.85;27.02;;;;;;;-0.80;62.64;96557.19;1788809;79;21314;-48
2022/12/19 09:03:46;;;;;;;52.80;25.50;;;;;;;-0.49;62.45;96553.47;1774462;79;21073;-51
2022/12/19 09:06:13;;;;;;;37.25;23.22;;;;;;;-0.30;61.70;96546.44;1716184;82;21084;-47
2022/12/19 09:08:40;;;;;;;29.80;15.85;;;;;;;-0.37;61.20;96551.58;1746957;80;21077;-48
2022/12/19 09:11:11;;;;;;;27.40;14.20;;;;;;;-0.45;60.12;96553.05;1744011;80;21516;-57
2022/12/19 09:13:39;;;;;;;27.48;14.53;;;;;;;-0.47;59.75;96548.52;1712109;81;22233;-52
2022/12/19 09:16:09;;;;;;;32.75;15.35;;;;;;;-0.36;59.84;96533.47;1739829;81;21114;-55
2022/12/19 09:18:36;;;;;;;32.85;20.82;;;;;;;-0.06;59.92;96539.72;1741927;80;21167;-57
2022/12/19 09:21:03;;;;;;;45.52;24.65;;;;;;;0.10;59.16;96533.34;1709843;81;21036;-50
2022/12/19 09:23:30;;;;;;;38.10;24.05;;;;;;;0.36;59.14;96535.14;1708549;82;21125;-54
2022/12/19 09:26:11;;;;;;;36.05;22.05;;;;;;;0.62;58.16;96533.44;1697157;82;21015;-46
2022/12/19 09:28:39;;;;;;;37.80;22.55;;;;;;;0.79;57.79;96538.03;1639542;84;21080;-52
2022/12/19 09:31:11;;;;;;;28.75;18.30;;;;;;;1.01;57.03;96529.43;1640949;84;21614;-46
2022/12/19 09:33:38;;;;;;;27.85;16.30;;;;;;;1.35;56.05;96523.42;1653471;85;21090;-47
2022/12/19 09:36:07;;;;;;;24.95;15.90;;;;;;;1.75;54.37;96511.95;1653729;85;21042;-66
2022/12/19 09:38:36;;;;;;;32.38;17.07;;;;;;;1.84;53.68;96497.64;1623234;86;21091;-52
2022/12/19 09:41:35;;;;;;;31.10;18.30;;;;;;;1.64;53.82;96497.30;1688670;83;21051;-48
2022/12/19 09:44:34;;;;;;;29.45;16.65;;;;;;;1.51;54.20;96494.42;1691805;82;21421;-55
2022/12/19 09:47:19;;;;;;;33.45;19.73;;;;;;;1.43;53.89;96502.16;1692379;81;21094;-56
2022/12/19 09:49:47;;;;;;;43.02;21.93;;;;;;;1.45;54.02;96497.17;1669973;84;21224;-54
2022/12/19 09:52:36;;;;;;;37.42;19.10;;;;;;;1.72;53.48;96490.14;1666010;83;22272;-56
2022/12/19 09:55:23;;;;;;;43.83;22.82;;;;;;;2.16;52.40;96477.52;1647368;84;21210;-64
2022/12/19 09:58:11;;;;;;;71.97;28.20;;;;;;;2.39;51.62;96467.59;1653023;84;21271;-50
2022/12/19 10:00:51;;;;;;;50.20;25.15;;;;;;;2.39;51.30;96459.44;1645813;84;21295;-49
2022/12/19 10:03:41;;;;;;;59.10;29.37;;;;;;;2.62;50.94;96464.42;1648066;84;22788;-56
2022/12/19 10:06:20;;;;;;;52.05;26.75;;;;;;;3.21;50.34;96454.06;1651862;85;21253;-52
2022/12/19 10:08:47;;;;;;;56.25;28.25;;;;;;;3.68;49.32;96452.64;1584590;89;21136;-54
2022/12/19 10:11:29;;;;;;;45.95;23.22;;;;;;;4.13;48.89;96452.07;1617396;87;22456;-52
2022/12/19 10:14:13;;;;;;;39.90;23.02;;;;;;;4.62;48.45;96450.69;1624825;85;21116;-52
2022/12/19 10:17:04;;;;;;;48.35;23.40;;;;;;;4.76;46.72;96450.30;1627724;85;21156;-60
2022/12/19 10:19:56;;;;;;;42.38;21.95;;;;;;;4.41;46.82;96447.65;1628524;85;21324;-54
2022/12/19 10:22:41;;;;;;;38.73;21.70;;;;;;;4.26;47.14;96445.26;1648414;85;21629;-54
2022/12/19 10:25:40;;;;;;;39.58;22.37;;;;;;;4.56;46.27;96439.88;1561445;89;22396;-61
2022/12/19 10:28:46;;;;;;;34.85;20.70;;;;;;;4.56;46.26;96439.31;1623121;87;21228;-58
2022/12/19 10:31:21;;;;;;;44.27;24.40;;;;;;;4.67;45.77;96436.17;1535525;91;21147;-53
2022/12/19 10:34:18;;;;;;;42.75;23.62;;;;;;;4.68;45.46;96427.40;1522855;92;21328;-51
2022/12/19 10:36:50;;;;;;;31.93;19.10;;;;;;;4.69;45.58;96429.77;1534445;92;21164;-51
2022/12/19 10:39:34;;;;;;;29.23;19.55;;;;;;;4.59;45.16;96415.41;1512787;93;21115;-52
2022/12/19 10:42:12;;;;;;;26.55;17.10;;;;;;;4.61;45.39;96411.73;1524545;92;21115;-58
2022/12/19 10:44:39;;;;;;;36.28;17.85;;;;;;;5.03;44.88;96396.51;1489695;95;21156;-51
2022/12/19 10:47:08;;;;;;;29.10;15.85;;;;;;;5.23;44.30;96401.44;1533952;90;21206;-50
2022/12/19 10:49:36;;;;;;;31.85;17.07;;;;;;;5.53;43.06;96393.95;1546266;90;21524;-50
2022/12/19 10:52:09;;;;;;;40.35;22.45;;;;;;;5.87;43.00;96388.66;1535007;90;21240;-56
2022/12/19 10:54:41;;;;;;;34.65;21.35;;;;;;;6.47;42.18;96379.77;1526478;90;21153;-53
2022/12/19 10:57:26;;;;;;;40.80;24.02;;;;;;;7.08;41.36;96379.69;1511547;93;21115;-50
2022/12/19 11:00:14;;;;;;;37.08;22.62;;;;;;;7.34;40.69;96374.71;1507653;92;21188;-56
2022/12/19 11:02:46;;;;;;;45.70;20.32;;;;;;;7.09;40.36;96374.42;1514531;92;21316;-57
2022/12/19 11:05:29;;;;;;;25.32;16.50;;;;;;;6.66;40.72;96369.16;1527175;92;21176;-54
2022/12/19 11:08:11;;;;;;;25.50;14.20;;;;;;;6.44;40.72;96366.87;1519125;92;21209;-56
2022/12/19 11:10:44;;;;;;;27.62;17.85;;;;;;;6.37;40.79;96371.50;1512419;93;21187;-54
2022/12/19 11:13:35;;;;;;;29.85;15.18;;;;;;;6.68;41.17;96366.82;1484483;94;21303;-53
2022/12/19 11:16:05;;;;;;;21.27;14.30;;;;;;;7.00;40.01;96358.16;1479055;93;21134;-55
2022/12/19 11:18:39;;;;;;;21.48;13.28;;;;;;;6.82;40.02;96356.73;1596308;86;21090;-55
2022/12/19 11:21:16;;;;;;;21.77;12.82;;;;;;;6.95;39.85;96355.80;1662011;79;21109;-58
2022/12/19 11:24:04;;;;;;;17.85;12.20;;;;;;;7.30;39.11;96354.76;1658378;84;21189;-57
2022/12/19 11:26:49;;;;;;;32.48;14.45;;;;;;;7.70;39.16;96351.70;1724034;80;21598;-52
2022/12/19 11:29:27;;;;;;;20.43;12.30;;;;;;;8.11;38.22;96350.16;1726731;80;21109;-51
2022/12/19 11:31:58;;;;;;;27.73;10.28;;;;;;;8.27;37.31;96349.80;1708154;82;21034;-51
2022/12/19 11:34:28;;;;;;;24.55;10.00;;;;;;;8.45;36.88;96350.57;1732328;80;21113;-49
2022/12/19 11:37:15;;;;;;;13.98;10.13;;;;;;;8.76;36.71;96339.52;1716443;82;21138;-51
2022/12/19 11:39:56;;;;;;;33.23;14.70;;;;;;;9.23;36.24;96340.33;1730257;80;21346;-50
2022/12/19 11:43:04;;;;;;;31.95;17.67;;;;;;;9.95;36.02;96340.29;1725416;82;21601;-52
2022/12/19 11:45:52;;;;;;;24.60;15.40;;;;;;;10.54;35.95;96328.77;1644863;85;22475;-51
2022/12/19 11:48:45;;;;;;;25.40;12.58;;;;;;;10.79;34.83;96325.19;1664241;83;21034;-56
2022/12/19 11:51:25;;;;;;;18.12;10.88;;;;;;;10.84;34.63;96321.36;1751689;80;21735;-53
2022/12/19 11:54:31;;;;;;;23.52;11.00;;;;;;;11.23;33.88;96317.58;1711661;81;21866;-52
2022/12/19 11:56:59;;;;;;;28.20;14.87;;;;;;;11.70;33.02;96322.67;1713812;82;21067;-55
2022/12/19 11:59:35;;;;;;;35.98;21.07;;;;;;;12.07;32.64;96319.13;1729016;81;21612;-52
2022/12/19 12:02:26;;;;;;;31.12;15.83;;;;;;;12.26;32.55;96318.42;1661831;83;21644;-54
2022/12/19 12:05:17;;;;;;;38.55;16.25;;;;;;;12.40;31.75;96320.95;1693037;82;21131;-52
2022/12/19 12:07:46;;;;;;;55.78;21.85;;;;;;;12.45;31.76;96314.17;1695603;81;21211;-55
2022/12/19 12:10:18;;;;;;;19.37;11.60;;;;;;;12.48;31.18;96311.33;1690258;83;21068;-54
2022/12/19 12:13:06;;;;;;;81.80;16.05;;;;;;;12.50;31.18;96308.95;1656124;83;21080;-54
2022/12/19 12:15:56;;;;;;;24.43;13.72;;;;;;;12.63;31.05;96305.73;1663319;83;21124;-52
2022/12/19 12:18:35;;;;;;;35.43;18.12;;;;;;;12.74;30.99;96302.95;1691374;83;21166;-51
2022/12/19 12:21:29;;;;;;;33.35;20.15;;;;;;;13.03;30.72;96305.98;1677926;85;21159;-54
2022/12/19 12:24:01;;;;;;;35.20;17.92;;;;;;;13.24;30.36;96301.42;1672412;83;21118;-53
2022/12/19 12:26:36;;;;;;;34.85;20.15;;;;;;;13.30;30.04;96306.00;1672682;85;21093;-52
2022/12/19 12:29:22;;;;;;;70.25;22.15;;;;;;;13.14;30.28;96301.83;1648462;85;21094;-52
2022/12/19 12:32:17;;;;;;;50.65;20.05;;;;;;;13.01;30.68;96307.01;1678505;84;21120;-53
2022/12/19 12:35:13;;;;;;;33.13;17.80;;;;;;;12.81;31.48;96317.23;1665938;84;21886;-52
2022/12/19 12:38:03;;;;;;;23.50;15.65;;;;;;;12.79;31.65;96309.98;1675181;83;21051;-56
2022/12/19 12:40:52;;;;;;;40.63;21.57;;;;;;;12.62;31.71;96308.32;1659300;84;21137;-53
2022/12/19 12:43:34;;;;;;;44.85;23.52;;;;;;;12.24;32.32;96313.92;1679232;84;21082;-54
2022/12/19 12:46:03;;;;;;;52.98;26.27;;;;;;;12.30;32.24;96314.99;1665446;84;21146;-57
2022/12/19 12:48:57;;;;;;;40.90;22.52;;;;;;;12.17;32.31;96308.53;1651450;85;21218;-54
2022/12/19 12:51:35;;;;;;;40.10;20.12;;;;;;;11.89;32.74;96306.83;1691267;82;21074;-47
2022/12/19 12:54:09;;;;;;;21.70;15.00;;;;;;;11.56;33.17;96308.47;1656114;82;21168;-54
2022/12/19 12:56:36;;;;;;;26.73;16.23;;;;;;;11.56;32.88;96308.47;1653712;84;21218;-51
2022/12/19 12:59:25;;;;;;;22.37;15.72;;;;;;;11.64;33.21;96302.27;1705772;82;21641;-52
2022/12/19 13:01:59;;;;;;;34.70;23.45;;;;;;;11.76;33.19;96301.12;1674361;84;21306;-53
2022/12/19 13:04:35;;;;;;;40.25;21.30;;;;;;;11.58;33.70;96297.05;1624241;86;21187;-50
2022/12/19 13:07:41;;;;;;;38.23;21.37;;;;;;;11.64;33.77;96302.27;1604124;87;21612;-54
2022/12/19 13:10:19;;;;;;;66.45;33.65;;;;;;;11.66;33.57;96307.55;1630287;85;21145;-67
2022/12/19 13:13:08;;;;;;;66.47;35.55;;;;;;;11.01;33.93;96300.34;1660999;83;21593;-53
2022/12/19 13:15:39;;;;;;;80.83;44.95;;;;;;;10.01;35.13;96306.46;1683933;83;21107;-63
2022/12/19 13:18:31;;;;;;;92.70;48.63;;;;;;;8.36;37.17;96313.16;1671081;83;21104;-55
2022/12/19 13:20:59;;;;;;;117.45;58.73;;;;;;;7.14;39.21;96309.16;1636401;86;21105;-52
2022/12/19 13:23:37;;;;;;;107.85;56.75;;;;;;;5.96;41.26;96305.84;1608093;86;21191;-53
2022/12/19 13:26:10;;;;;;;138.77;79.40;;;;;;;5.04;43.22;96308.88;1628344;86;21468;-50
2022/12/19 13:28:40;;;;;;;120.10;65.87;;;;;;;4.24;44.82;96310.59;1600895;87;21173;-50
2022/12/19 13:31:22;;;;;;;110.83;63.78;;;;;;;3.58;46.51;96303.56;1568141;89;21212;-50
2022/12/19 13:33:58;;;;;;;122.00;65.97;;;;;;;3.06;47.66;96297.23;1591813;86;21718;-49
2022/12/19 13:36:51;;;;;;;136.75;69.03;;;;;;;2.76;48.98;96296.27;1591973;87;21206;-58
2022/12/19 13:39:27;;;;;;;108.87;56.63;;;;;;;2.54;49.83;96296.42;1615487;86;21237;-50
2022/12/19 13:45:07;;;;;;;108.75;54.08;;;;;;;2.00;51.96;96292.19;1604959;87;21705;-50
2022/12/19 13:47:40;;;;;;;120.65;55.65;;;;;;;1.74;53.41;96292.00;1592954;88;21105;-50
2022/12/19 13:50:30;;;;;;;110.45;57.13;;;;;;;1.53;54.25;96295.55;1581286;90;21074;-50
2022/12/19 13:52:58;;;;;;;117.00;57.73;;;;;;;1.38;54.90;96303.14;1549282;90;21156;-53
2022/12/19 13:55:30;;;;;;;126.22;60.03;;;;;;;1.23;55.43;96306.64;1557323;89;21331;-45
2022/12/19 13:57:57;;;;;;;87.20;45.37;;;;;;;1.08;56.01;96299.28;1572778;89;21700;-50
2022/12/19 14:00:40;;;;;;;53.70;25.68;;;;;;;0.89;56.85;96300.53;1577026;88;21123;-49
2022/12/19 14:03:14;;;;;;;37.65;20.72;;;;;;;0.76;57.46;96294.95;1587939;88;21954;-48
2022/12/19 14:05:41;;;;;;;34.88;21.15;;;;;;;0.62;58.07;96297.28;1591712;88;21111;-53
2022/12/19 14:08:08;;;;;;;37.50;22.20;;;;;;;0.55;58.91;96293.62;1588346;88;21201;-53
2022/12/19 14:10:38;;;;;;;36.10;22.58;;;;;;;0.53;59.13;96289.89;1587215;87;21095;-51
2022/12/19 14:15:53;;;;;;;37.13;20.00;;;;;;;0.57;59.35;96293.47;1582334;89;21145;-51
2022/12/19 14:18:26;;;;;;;73.05;36.80;;;;;;;0.55;59.37;96297.09;1568597;87;21138;-52
2022/12/19 14:21:26;;;;;;;115.25;61.00;;;;;;;0.46;59.57;96293.77;1688490;83;21231;-59
2022/12/19 14:24:15;;;;;;;99.15;54.60;;;;;;;0.32;59.83;96289.31;1699492;83;21085;-52
2022/12/19 14:26:42;;;;;;;104.15;53.05;;;;;;;0.20;60.46;96290.70;1680769;83;21131;-56
2022/12/19 14:29:16;;;;;;;109.22;52.73;;;;;;;0.13;60.65;96289.16;1670424;84;21123;-70
2022/12/19 14:31:43;;;;;;;101.78;52.30;;;;;;;0.04;60.92;96288.48;1586515;87;21817;-50
2022/12/19 14:34:18;;;;;;;142.15;67.27;;;;;;;-0.05;61.33;96291.10;1630323;86;21223;-54
2022/12/19 14:36:53;;;;;;;157.62;70.52;;;;;;;-0.06;61.62;96291.46;1649958;86;21148;-49
2022/12/19 14:39:33;;;;;;;163.12;75.55;;;;;;;-0.02;61.55;96288.52;1640916;86;21097;-50
2022/12/19 14:44:59;;;;;;;167.13;88.78;;;;;;;-0.01;62.06;96275.20;1628911;87;21605;-49
2022/12/19 14:47:38;;;;;;;166.85;83.72;;;;;;;-0.01;62.08;96282.52;1627940;87;21959;-51
2022/12/19 14:50:32;;;;;;;107.52;56.48;;;;;;;-0.02;61.99;96290.41;1715723;82;21179;-49
2022/12/19 14:53:20;;;;;;;122.98;63.78;;;;;;;-0.03;62.17;96292.90;1714685;81;21077;-51
2022/12/19 14:55:48;;;;;;;64.55;31.73;;;;;;;-0.02;62.21;96292.57;1650022;84;21090;-49
2022/12/19 15:00:58;;;;;;;84.62;36.63;;;;;;;-0.28;62.35;96300.05;1624152;86;21493;-50
2022/12/19 15:03:28;;;;;;;112.30;51.20;;;;;;;-0.53;62.80;96298.50;1592477;89;20994;-51
2022/12/19 15:06:14;;;;;;;103.62;53.85;;;;;;;-0.67;63.04;96311.55;1670590;84;21242;-54
2022/12/19 15:08:41;;;;;;;57.67;30.68;;;;;;;-0.85;63.61;96309.65;1625710;86;21059;-52
2022/12/19 15:14:10;;;;;;;66.70;37.80;;;;;;;-1.07;64.75;96311.97;1605661;86;21329;-50
2022/12/19 15:16:38;;;;;;;77.32;41.68;;;;;;;-1.18;64.93;96317.59;1631968;86;21243;-53
2022/12/19 15:19:11;;;;;;;87.08;48.15;;;;;;;-1.28;65.50;96315.30;1578886;88;21112;-51
2022/12/19 15:21:38;;;;;;;;;;;;;;;-1.27;65.73;96311.48;1574557;89;21303;-49
2022/12/19 15:24:05;;;;;;;73.05;46.20;;;;;;;-1.32;65.96;96319.22;1574966;89;20488;-49
2022/12/19 15:26:35;;;;;;;83.35;48.05;;;;;;;-1.31;66.31;96319.45;1588477;88;21283;-53
2022/12/19 15:29:02;;;;;;;84.05;44.88;;;;;;;-1.26;66.17;96323.86;1594469;88;21040;-50
2022/12/19 15:31:39;;;;;;;58.83;36.15;;;;;;;-1.27;65.96;96321.73;1575729;88;21068;-51
2022/12/19 15:34:22;;;;;;;102.80;53.60;;;;;;;-1.29;66.07;96327.23;1561423;90;21071;-50
2022/12/19 15:36:50;;;;;;;120.20;65.87;;;;;;;-1.29;66.31;96327.23;1649831;84;21461;-48
2022/12/19 15:39:17;;;;;;;94.03;49.65;;;;;;;-1.27;66.15;96324.98;1621838;86;21276;-56
2022/12/19 15:41:46;;;;;;;125.35;66.40;;;;;;;-1.31;66.18;96320.02;1593262;88;21575;-50
2022/12/19 15:44:27;;;;;;;141.55;72.70;;;;;;;-1.33;66.47;96321.70;1566948;88;21045;-51
2022/12/19 15:46:54;;;;;;;156.35;77.62;;;;;;;-1.31;66.33;96330.25;1614229;88;21165;-50
2022/12/19 15:49:21;;;;;;;147.93;74.75;;;;;;;-1.31;66.31;96326.77;1602893;89;21014;-49
2022/12/19 15:51:48;;;;;;;129.20;69.55;;;;;;;-1.30;66.21;96328.35;1576474;88;21263;-54
2022/12/19 15:54:15;;;;;;;105.97;55.65;;;;;;;-1.32;66.01;96327.32;1612778;86;21149;-50
2022/12/19 15:56:52;;;;;;;118.80;57.60;;;;;;;-1.34;65.97;96322.05;1605590;86;21314;-53
2022/12/19 15:59:34;;;;;;;185.28;75.87;;;;;;;-1.35;65.89;96315.84;1621090;86;21084;-50
2022/12/19 16:02:01;;;;;;;87.27;49.77;;;;;;;-1.41;65.77;96313.69;1615165;85;21203;-50
2022/12/19 20:01:34;;;;;;;320.42;142.75;;;;;;;-6.10;80.16;96203.27;1807903;77;26329;-48
2022/12/19 20:04:01;;;;;;;254.28;120.33;;;;;;;-6.16;80.27;96196.45;1786303;78;21065;-49
2022/12/19 20:06:28;;;;;;;197.70;91.08;;;;;;;-6.10;80.56;96197.92;1791795;78;21313;-48
2022/12/19 20:08:56;;;;;;;115.90;61.18;;;;;;;-6.04;80.33;96187.30;1765911;78;21092;-50
2022/12/19 20:11:23;;;;;;;267.00;117.37;;;;;;;-6.00;80.04;96182.91;1785060;79;20957;-49
2022/12/19 20:13:49;;;;;;;276.92;130.03;;;;;;;-5.95;80.14;96186.78;1802395;78;20984;-49